sensor_id;sensor_type;location;lat;lon;timestamp;P1;durP1;ratioP1;P2;durP2;ratioP2
51566;SDS011;37657;53.182;5.638;2022-12-19T00:02:09;37.70;;;30.60;;
51566;SDS011;37657;53.182;5.638;2022-12-19T00:04:34;36.40;;;31.38;;
51566;SDS011;37657;53.182;5.638;2022-12-19T00:07:00;38.17;;;30.77;;
51566;SDS011;37657;53.182;5.638;2022-12-19T00:09:25;37.38;;;29.83;;
51566;SDS011;37657;53.182;5.638;2022-12-19T00:11:51;41.13;;;30.90;;
51566;SDS011;37657;53.182;5.638;2022-12-19T00:14:17;44.25;;;34.50;;
51566;SDS011;37657;53.182;5.638;2022-12-19T00:16:43;31.48;;;28.08;;
51566;SDS011;37657;53.182;5.638;2022-12-19T00:19:09;48.13;;;33.67;;
51566;SDS011;37657;53.182;5.638;2022-12-19T00:21:36;37.83;;;27.60;;
51566;SDS011;37657;53.182;5.638;2022-12-19T00:24:04;44.75;;;29.88;;
51566;SDS011;37657;53.182;5.638;2022-12-19T00:26:32;40.90;;;29.52;;
51566;SDS011;37657;53.182;5.638;2022-12-19T00:29:00;40.35;;;34.13;;
51566;SDS011;37657;53.182;5.638;2022-12-19T00:31:28;40.92;;;32.17;;
51566;SDS011;37657;53.182;5.638;2022-12-19T00:33:55;40.08;;;32.70;;
51566;SDS011;37657;53.182;5.638;2022-12-19T00:36:22;41.20;;;34.72;;
51566;SDS011;37657;53.182;5.638;2022-12-19T00:38:50;33.42;;;29.50;;
51566;SDS011;37657;53.182;5.638;2022-12-19T00:41:19;48.25;;;34.28;;
51566;SDS011;37657;53.182;5.638;2022-12-19T00:43:53;39.40;;;34.00;;
51566;SDS011;37657;53.182;5.638;2022-12-19T00:46:23;40.72;;;31.33;;
51566;SDS011;37657;53.182;5.638;2022-12-19T00:48:48;42.03;;;31.77;;
51566;SDS011;37657;53.182;5.638;2022-12-19T00:51:24;47.13;;;36.55;;
51566;SDS011;37657;53.182;5.638;2022-12-19T00:53:53;46.00;;;37.00;;
51566;SDS011;37657;53.182;5.638;2022-12-19T00:56:23;40.47;;;35.60;;
51566;SDS011;37657;53.182;5.638;2022-12-19T00:58:54;38.63;;;32.33;;
51566;SDS011;37657;53.182;5.638;2022-12-19T01:01:27;43.20;;;34.13;;
51566;SDS011;37657;53.182;5.638;2022-12-19T01:03:58;45.42;;;35.88;;
51566;SDS011;37657;53.182;5.638;2022-12-19T01:06:25;41.85;;;36.65;;
51566;SDS011;37657;53.182;5.638;2022-12-19T01:08:51;39.88;;;34.03;;
51566;SDS011;37657;53.182;5.638;2022-12-19T01:11:17;44.08;;;38.88;;
51566;SDS011;37657;53.182;5.638;2022-12-19T01:14:03;39.85;;;35.00;;
51566;SDS011;37657;53.182;5.638;2022-12-19T01:16:28;36.55;;;30.10;;
51566;SDS011;37657;53.182;5.638;2022-12-19T01:18:54;42.78;;;38.53;;
51566;SDS011;37657;53.182;5.638;2022-12-19T01:21:19;46.97;;;36.53;;
51566;SDS011;37657;53.182;5.638;2022-12-19T01:23:45;45.35;;;40.88;;
51566;SDS011;37657;53.182;5.638;2022-12-19T01:26:10;39.00;;;34.80;;
51566;SDS011;37657;53.182;5.638;2022-12-19T01:28:36;39.17;;;32.95;;
51566;SDS011;37657;53.182;5.638;2022-12-19T01:31:06;42.10;;;36.50;;
51566;SDS011;37657;53.182;5.638;2022-12-19T01:33:31;36.92;;;33.15;;
51566;SDS011;37657;53.182;5.638;2022-12-19T01:35:57;40.17;;;35.97;;
51566;SDS011;37657;53.182;5.638;2022-12-19T01:38:25;40.55;;;32.80;;
51566;SDS011;37657;53.182;5.638;2022-12-19T01:40:52;58.83;;;38.10;;
51566;SDS011;37657;53.182;5.638;2022-12-19T01:43:20;38.47;;;34.22;;
51566;SDS011;37657;53.182;5.638;2022-12-19T01:45:46;36.63;;;32.78;;
51566;SDS011;37657;53.182;5.638;2022-12-19T01:48:19;38.78;;;34.40;;
51566;SDS011;37657;53.182;5.638;2022-12-19T01:51:10;43.90;;;31.88;;
51566;SDS011;37657;53.182;5.638;2022-12-19T01:53:42;41.88;;;33.78;;
51566;SDS011;37657;53.182;5.638;2022-12-19T01:56:12;52.70;;;37.67;;
51566;SDS011;37657;53.182;5.638;2022-12-19T01:58:39;38.92;;;34.40;;
51566;SDS011;37657;53.182;5.638;2022-12-19T02:01:07;40.50;;;35.80;;
51566;SDS011;37657;53.182;5.638;2022-12-19T02:03:33;44.50;;;36.72;;
51566;SDS011;37657;53.182;5.638;2022-12-19T02:06:01;48.80;;;37.25;;
51566;SDS011;37657;53.182;5.638;2022-12-19T02:08:28;41.40;;;36.60;;
51566;SDS011;37657;53.182;5.638;2022-12-19T02:10:55;38.67;;;34.50;;
51566;SDS011;37657;53.182;5.638;2022-12-19T02:13:20;38.33;;;34.22;;
51566;SDS011;37657;53.182;5.638;2022-12-19T02:21:24;52.13;;;40.03;;
51566;SDS011;37657;53.182;5.638;2022-12-19T02:34:42;52.28;;;39.38;;
51566;SDS011;37657;53.182;5.638;2022-12-19T02:37:29;41.35;;;32.35;;
51566;SDS011;37657;53.182;5.638;2022-12-19T02:42:58;46.22;;;38.70;;
51566;SDS011;37657;53.182;5.638;2022-12-19T02:45:25;37.70;;;33.78;;
51566;SDS011;37657;53.182;5.638;2022-12-19T02:48:00;48.30;;;35.58;;
51566;SDS011;37657;53.182;5.638;2022-12-19T02:50:40;48.55;;;38.33;;
51566;SDS011;37657;53.182;5.638;2022-12-19T02:53:09;45.60;;;39.38;;
51566;SDS011;37657;53.182;5.638;2022-12-19T02:59:07;38.33;;;34.33;;
51566;SDS011;37657;53.182;5.638;2022-12-19T03:01:50;53.75;;;36.80;;
51566;SDS011;37657;53.182;5.638;2022-12-19T03:04:34;37.92;;;33.92;;
51566;SDS011;37657;53.182;5.638;2022-12-19T03:07:18;43.15;;;35.97;;
51566;SDS011;37657;53.182;5.638;2022-12-19T03:12:24;53.70;;;36.13;;
51566;SDS011;37657;53.182;5.638;2022-12-19T03:14:54;37.95;;;29.05;;
51566;SDS011;37657;53.182;5.638;2022-12-19T03:17:22;39.28;;;34.17;;
51566;SDS011;37657;53.182;5.638;2022-12-19T03:19:48;37.60;;;28.50;;
51566;SDS011;37657;53.182;5.638;2022-12-19T03:22:14;39.03;;;32.53;;
51566;SDS011;37657;53.182;5.638;2022-12-19T03:24:40;38.88;;;34.45;;
51566;SDS011;37657;53.182;5.638;2022-12-19T03:27:19;43.00;;;33.88;;
51566;SDS011;37657;53.182;5.638;2022-12-19T03:29:54;39.30;;;31.33;;
51566;SDS011;37657;53.182;5.638;2022-12-19T03:32:26;37.92;;;32.67;;
51566;SDS011;37657;53.182;5.638;2022-12-19T03:35:04;40.63;;;33.90;;
51566;SDS011;37657;53.182;5.638;2022-12-19T03:37:37;36.00;;;30.73;;
51566;SDS011;37657;53.182;5.638;2022-12-19T03:40:09;43.92;;;34.03;;
51566;SDS011;37657;53.182;5.638;2022-12-19T03:42:39;38.63;;;34.65;;
51566;SDS011;37657;53.182;5.638;2022-12-19T03:45:30;57.00;;;34.58;;
51566;SDS011;37657;53.182;5.638;2022-12-19T03:48:06;51.08;;;32.08;;
51566;SDS011;37657;53.182;5.638;2022-12-19T03:50:47;38.05;;;31.05;;
51566;SDS011;37657;53.182;5.638;2022-12-19T03:53:22;43.00;;;31.55;;
51566;SDS011;37657;53.182;5.638;2022-12-19T03:56:03;41.47;;;33.38;;
51566;SDS011;37657;53.182;5.638;2022-12-19T03:58:37;42.45;;;28.73;;
51566;SDS011;37657;53.182;5.638;2022-12-19T04:01:06;40.70;;;34.53;;
51566;SDS011;37657;53.182;5.638;2022-12-19T04:03:33;38.63;;;32.80;;
51566;SDS011;37657;53.182;5.638;2022-12-19T04:05:59;33.80;;;29.35;;
51566;SDS011;37657;53.182;5.638;2022-12-19T04:08:26;36.65;;;29.88;;
51566;SDS011;37657;53.182;5.638;2022-12-19T04:10:55;51.13;;;35.88;;
51566;SDS011;37657;53.182;5.638;2022-12-19T04:13:37;41.17;;;34.90;;
51566;SDS011;37657;53.182;5.638;2022-12-19T04:18:40;39.60;;;32.20;;
51566;SDS011;37657;53.182;5.638;2022-12-19T04:21:16;36.10;;;29.38;;
51566;SDS011;37657;53.182;5.638;2022-12-19T04:23:46;37.50;;;30.00;;
51566;SDS011;37657;53.182;5.638;2022-12-19T04:26:17;38.40;;;32.78;;
51566;SDS011;37657;53.182;5.638;2022-12-19T04:28:49;35.10;;;28.25;;
51566;SDS011;37657;53.182;5.638;2022-12-19T04:31:21;35.60;;;31.17;;
51566;SDS011;37657;53.182;5.638;2022-12-19T04:33:47;35.50;;;31.65;;
51566;SDS011;37657;53.182;5.638;2022-12-19T04:36:13;37.60;;;29.77;;
51566;SDS011;37657;53.182;5.638;2022-12-19T04:38:38;33.95;;;30.10;;
51566;SDS011;37657;53.182;5.638;2022-12-19T04:41:04;35.83;;;30.42;;
51566;SDS011;37657;53.182;5.638;2022-12-19T04:43:29;34.33;;;30.17;;
51566;SDS011;37657;53.182;5.638;2022-12-19T04:45:55;34.58;;;29.42;;
51566;SDS011;37657;53.182;5.638;2022-12-19T04:48:21;31.15;;;28.05;;
51566;SDS011;37657;53.182;5.638;2022-12-19T04:50:46;37.00;;;31.15;;
51566;SDS011;37657;53.182;5.638;2022-12-19T04:53:12;40.88;;;32.78;;
51566;SDS011;37657;53.182;5.638;2022-12-19T04:55:37;43.40;;;32.15;;
51566;SDS011;37657;53.182;5.638;2022-12-19T04:58:04;36.28;;;28.10;;
51566;SDS011;37657;53.182;5.638;2022-12-19T05:00:30;35.55;;;29.05;;
51566;SDS011;37657;53.182;5.638;2022-12-19T05:02:56;36.38;;;27.10;;
51566;SDS011;37657;53.182;5.638;2022-12-19T05:05:22;36.05;;;29.65;;
51566;SDS011;37657;53.182;5.638;2022-12-19T05:07:47;30.00;;;26.90;;
51566;SDS011;37657;53.182;5.638;2022-12-19T05:10:13;32.72;;;28.25;;
51566;SDS011;37657;53.182;5.638;2022-12-19T05:12:39;35.95;;;27.88;;
51566;SDS011;37657;53.182;5.638;2022-12-19T05:15:05;36.20;;;25.10;;
51566;SDS011;37657;53.182;5.638;2022-12-19T05:17:30;31.92;;;28.50;;
51566;SDS011;37657;53.182;5.638;2022-12-19T05:19:56;39.75;;;29.65;;
51566;SDS011;37657;53.182;5.638;2022-12-19T05:22:21;29.05;;;25.08;;
51566;SDS011;37657;53.182;5.638;2022-12-19T05:24:47;28.30;;;23.25;;
51566;SDS011;37657;53.182;5.638;2022-12-19T05:27:13;32.65;;;28.02;;
51566;SDS011;37657;53.182;5.638;2022-12-19T05:29:38;31.48;;;22.25;;
51566;SDS011;37657;53.182;5.638;2022-12-19T05:32:04;27.63;;;24.50;;
51566;SDS011;37657;53.182;5.638;2022-12-19T05:34:29;27.98;;;24.90;;
51566;SDS011;37657;53.182;5.638;2022-12-19T05:36:55;27.77;;;24.95;;
51566;SDS011;37657;53.182;5.638;2022-12-19T05:39:20;34.08;;;26.50;;
51566;SDS011;37657;53.182;5.638;2022-12-19T05:41:46;36.25;;;26.20;;
51566;SDS011;37657;53.182;5.638;2022-12-19T05:44:11;27.60;;;23.58;;
51566;SDS011;37657;53.182;5.638;2022-12-19T05:46:37;25.23;;;21.38;;
51566;SDS011;37657;53.182;5.638;2022-12-19T05:49:02;30.17;;;23.08;;
51566;SDS011;37657;53.182;5.638;2022-12-19T05:51:28;28.63;;;21.38;;
51566;SDS011;37657;53.182;5.638;2022-12-19T05:53:53;25.95;;;22.92;;
51566;SDS011;37657;53.182;5.638;2022-12-19T05:56:20;28.38;;;21.88;;
51566;SDS011;37657;53.182;5.638;2022-12-19T05:58:46;23.70;;;21.17;;
51566;SDS011;37657;53.182;5.638;2022-12-19T06:01:17;28.63;;;20.63;;
51566;SDS011;37657;53.182;5.638;2022-12-19T06:03:48;24.85;;;22.27;;
51566;SDS011;37657;53.182;5.638;2022-12-19T06:06:15;22.50;;;18.27;;
51566;SDS011;37657;53.182;5.638;2022-12-19T06:08:51;21.25;;;17.45;;
51566;SDS011;37657;53.182;5.638;2022-12-19T06:11:17;27.80;;;20.88;;
51566;SDS011;37657;53.182;5.638;2022-12-19T06:13:43;27.45;;;18.02;;
51566;SDS011;37657;53.182;5.638;2022-12-19T06:16:10;19.48;;;16.98;;
51566;SDS011;37657;53.182;5.638;2022-12-19T06:18:41;26.63;;;17.95;;
51566;SDS011;37657;53.182;5.638;2022-12-19T06:21:14;25.13;;;20.38;;
51566;SDS011;37657;53.182;5.638;2022-12-19T06:23:42;20.27;;;18.02;;
51566;SDS011;37657;53.182;5.638;2022-12-19T06:26:09;21.13;;;17.88;;
51566;SDS011;37657;53.182;5.638;2022-12-19T06:28:35;22.52;;;20.27;;
51566;SDS011;37657;53.182;5.638;2022-12-19T06:31:02;28.33;;;16.50;;
51566;SDS011;37657;53.182;5.638;2022-12-19T06:33:29;23.50;;;14.52;;
51566;SDS011;37657;53.182;5.638;2022-12-19T06:35:59;21.10;;;17.63;;
51566;SDS011;37657;53.182;5.638;2022-12-19T06:38:27;17.05;;;14.77;;
51566;SDS011;37657;53.182;5.638;2022-12-19T06:40:53;15.93;;;14.55;;
51566;SDS011;37657;53.182;5.638;2022-12-19T06:43:38;20.33;;;15.68;;
51566;SDS011;37657;53.182;5.638;2022-12-19T06:46:03;14.02;;;12.63;;
51566;SDS011;37657;53.182;5.638;2022-12-19T06:48:29;18.55;;;16.13;;
51566;SDS011;37657;53.182;5.638;2022-12-19T06:50:55;19.42;;;15.18;;
51566;SDS011;37657;53.182;5.638;2022-12-19T06:53:21;15.07;;;13.27;;
51566;SDS011;37657;53.182;5.638;2022-12-19T06:55:47;15.48;;;13.98;;
51566;SDS011;37657;53.182;5.638;2022-12-19T06:58:15;17.02;;;15.23;;
51566;SDS011;37657;53.182;5.638;2022-12-19T07:00:41;18.05;;;13.80;;
51566;SDS011;37657;53.182;5.638;2022-12-19T07:03:08;15.07;;;13.43;;
51566;SDS011;37657;53.182;5.638;2022-12-19T07:05:37;14.32;;;11.25;;
51566;SDS011;37657;53.182;5.638;2022-12-19T07:08:04;16.83;;;12.20;;
51566;SDS011;37657;53.182;5.638;2022-12-19T07:10:29;19.20;;;13.02;;
51566;SDS011;37657;53.182;5.638;2022-12-19T07:12:55;12.10;;;10.93;;
51566;SDS011;37657;53.182;5.638;2022-12-19T07:15:21;15.43;;;11.35;;
51566;SDS011;37657;53.182;5.638;2022-12-19T07:17:47;18.10;;;13.55;;
51566;SDS011;37657;53.182;5.638;2022-12-19T07:20:13;17.02;;;11.98;;
51566;SDS011;37657;53.182;5.638;2022-12-19T07:22:40;19.50;;;14.43;;
51566;SDS011;37657;53.182;5.638;2022-12-19T07:25:07;13.73;;;12.15;;
51566;SDS011;37657;53.182;5.638;2022-12-19T07:27:33;12.35;;;11.05;;
51566;SDS011;37657;53.182;5.638;2022-12-19T07:30:00;14.98;;;12.35;;
51566;SDS011;37657;53.182;5.638;2022-12-19T07:32:26;15.05;;;13.27;;
51566;SDS011;37657;53.182;5.638;2022-12-19T07:34:54;13.75;;;12.27;;
51566;SDS011;37657;53.182;5.638;2022-12-19T07:37:20;14.40;;;11.25;;
51566;SDS011;37657;53.182;5.638;2022-12-19T07:39:46;15.38;;;11.50;;
51566;SDS011;37657;53.182;5.638;2022-12-19T07:42:12;15.23;;;11.52;;
51566;SDS011;37657;53.182;5.638;2022-12-19T07:44:37;14.68;;;11.38;;
51566;SDS011;37657;53.182;5.638;2022-12-19T07:47:03;11.90;;;10.10;;
51566;SDS011;37657;53.182;5.638;2022-12-19T07:49:28;32.17;;;14.27;;
51566;SDS011;37657;53.182;5.638;2022-12-19T07:51:54;15.02;;;11.93;;
51566;SDS011;37657;53.182;5.638;2022-12-19T07:54:19;14.52;;;12.90;;
51566;SDS011;37657;53.182;5.638;2022-12-19T07:56:45;13.07;;;11.57;;
51566;SDS011;37657;53.182;5.638;2022-12-19T07:59:11;17.77;;;11.27;;
51566;SDS011;37657;53.182;5.638;2022-12-19T08:01:37;14.90;;;13.40;;
51566;SDS011;37657;53.182;5.638;2022-12-19T08:04:02;14.80;;;12.02;;
51566;SDS011;37657;53.182;5.638;2022-12-19T08:06:28;18.50;;;13.70;;
51566;SDS011;37657;53.182;5.638;2022-12-19T08:08:53;13.63;;;12.30;;
51566;SDS011;37657;53.182;5.638;2022-12-19T08:11:20;16.13;;;13.63;;
51566;SDS011;37657;53.182;5.638;2022-12-19T08:13:51;17.50;;;15.07;;
51566;SDS011;37657;53.182;5.638;2022-12-19T08:16:21;16.98;;;12.60;;
51566;SDS011;37657;53.182;5.638;2022-12-19T08:18:48;16.92;;;13.07;;
51566;SDS011;37657;53.182;5.638;2022-12-19T08:21:14;15.80;;;12.85;;
51566;SDS011;37657;53.182;5.638;2022-12-19T08:23:40;15.38;;;12.57;;
51566;SDS011;37657;53.182;5.638;2022-12-19T08:26:13;17.35;;;12.45;;
51566;SDS011;37657;53.182;5.638;2022-12-19T08:28:41;14.80;;;13.20;;
51566;SDS011;37657;53.182;5.638;2022-12-19T08:31:12;14.05;;;12.57;;
51566;SDS011;37657;53.182;5.638;2022-12-19T08:33:40;17.58;;;15.68;;
51566;SDS011;37657;53.182;5.638;2022-12-19T08:36:06;16.77;;;14.73;;
51566;SDS011;37657;53.182;5.638;2022-12-19T08:38:33;14.80;;;13.40;;
51566;SDS011;37657;53.182;5.638;2022-12-19T08:40:59;12.70;;;11.50;;
51566;SDS011;37657;53.182;5.638;2022-12-19T08:43:25;18.73;;;15.18;;
51566;SDS011;37657;53.182;5.638;2022-12-19T08:45:53;18.20;;;16.20;;
51566;SDS011;37657;53.182;5.638;2022-12-19T08:48:19;17.80;;;14.90;;
51566;SDS011;37657;53.182;5.638;2022-12-19T08:51:01;17.42;;;15.60;;
51566;SDS011;37657;53.182;5.638;2022-12-19T08:53:29;16.90;;;14.35;;
51566;SDS011;37657;53.182;5.638;2022-12-19T08:55:57;16.88;;;15.18;;
51566;SDS011;37657;53.182;5.638;2022-12-19T08:58:24;19.63;;;17.15;;
51566;SDS011;37657;53.182;5.638;2022-12-19T09:00:51;17.20;;;15.35;;
51566;SDS011;37657;53.182;5.638;2022-12-19T09:03:17;23.10;;;18.77;;
51566;SDS011;37657;53.182;5.638;2022-12-19T09:05:53;14.68;;;13.23;;
51566;SDS011;37657;53.182;5.638;2022-12-19T09:08:22;17.80;;;15.70;;
51566;SDS011;37657;53.182;5.638;2022-12-19T09:10:48;18.67;;;16.40;;
51566;SDS011;37657;53.182;5.638;2022-12-19T09:13:14;21.73;;;18.13;;
51566;SDS011;37657;53.182;5.638;2022-12-19T09:15:40;21.52;;;17.35;;
51566;SDS011;37657;53.182;5.638;2022-12-19T09:18:05;18.75;;;16.85;;
51566;SDS011;37657;53.182;5.638;2022-12-19T09:20:31;18.02;;;16.15;;
51566;SDS011;37657;53.182;5.638;2022-12-19T09:22:57;18.20;;;16.35;;
51566;SDS011;37657;53.182;5.638;2022-12-19T09:25:22;16.33;;;13.60;;
51566;SDS011;37657;53.182;5.638;2022-12-19T09:27:48;18.60;;;16.77;;
51566;SDS011;37657;53.182;5.638;2022-12-19T09:30:13;17.38;;;15.55;;
51566;SDS011;37657;53.182;5.638;2022-12-19T09:32:39;20.30;;;16.55;;
51566;SDS011;37657;53.182;5.638;2022-12-19T09:35:05;16.80;;;14.88;;
51566;SDS011;37657;53.182;5.638;2022-12-19T09:37:32;21.10;;;16.45;;
51566;SDS011;37657;53.182;5.638;2022-12-19T09:39:57;21.10;;;15.23;;
51566;SDS011;37657;53.182;5.638;2022-12-19T09:45:14;17.50;;;11.23;;
51566;SDS011;37657;53.182;5.638;2022-12-19T09:47:57;20.90;;;14.35;;
51566;SDS011;37657;53.182;5.638;2022-12-19T09:53:14;17.75;;;13.45;;
51566;SDS011;37657;53.182;5.638;2022-12-19T09:55:57;17.70;;;13.38;;
51566;SDS011;37657;53.182;5.638;2022-12-19T09:58:35;21.27;;;16.20;;
51566;SDS011;37657;53.182;5.638;2022-12-19T10:01:07;16.10;;;14.48;;
51566;SDS011;37657;53.182;5.638;2022-12-19T10:03:42;16.02;;;12.88;;
51566;SDS011;37657;53.182;5.638;2022-12-19T10:06:18;17.90;;;14.07;;
51566;SDS011;37657;53.182;5.638;2022-12-19T10:08:46;26.57;;;16.23;;
51566;SDS011;37657;53.182;5.638;2022-12-19T10:27:49;13.13;;;10.45;;
51566;SDS011;37657;53.182;5.638;2022-12-19T10:30:22;14.27;;;12.77;;
51566;SDS011;37657;53.182;5.638;2022-12-19T10:33:01;13.65;;;12.27;;
51566;SDS011;37657;53.182;5.638;2022-12-19T10:35:42;15.38;;;13.82;;
51566;SDS011;37657;53.182;5.638;2022-12-19T10:40:41;13.68;;;11.48;;
51566;SDS011;37657;53.182;5.638;2022-12-19T10:43:12;13.23;;;11.93;;
51566;SDS011;37657;53.182;5.638;2022-12-19T10:45:51;19.73;;;13.90;;
51566;SDS011;37657;53.182;5.638;2022-12-19T10:48:21;15.35;;;11.35;;
51566;SDS011;37657;53.182;5.638;2022-12-19T10:50:47;19.27;;;12.45;;
51566;SDS011;37657;53.182;5.638;2022-12-19T10:53:13;13.88;;;11.82;;
51566;SDS011;37657;53.182;5.638;2022-12-19T10:55:47;11.88;;;10.68;;
51566;SDS011;37657;53.182;5.638;2022-12-19T10:58:27;14.55;;;12.23;;
51566;SDS011;37657;53.182;5.638;2022-12-19T11:01:02;14.10;;;11.73;;
51566;SDS011;37657;53.182;5.638;2022-12-19T11:03:47;14.80;;;11.85;;
51566;SDS011;37657;53.182;5.638;2022-12-19T11:06:38;13.05;;;10.38;;
51566;SDS011;37657;53.182;5.638;2022-12-19T11:09:38;14.82;;;12.07;;
51566;SDS011;37657;53.182;5.638;2022-12-19T11:14:32;13.38;;;10.85;;
51566;SDS011;37657;53.182;5.638;2022-12-19T11:17:00;15.43;;;11.23;;
51566;SDS011;37657;53.182;5.638;2022-12-19T11:19:36;11.73;;;10.52;;
51566;SDS011;37657;53.182;5.638;2022-12-19T11:25:01;15.98;;;12.32;;
51566;SDS011;37657;53.182;5.638;2022-12-19T11:32:40;13.00;;;11.63;;
51566;SDS011;37657;53.182;5.638;2022-12-19T11:37:46;16.27;;;12.43;;
51566;SDS011;37657;53.182;5.638;2022-12-19T11:42:51;9.73;;;8.80;;
51566;SDS011;37657;53.182;5.638;2022-12-19T11:45:38;11.48;;;9.43;;
51566;SDS011;37657;53.182;5.638;2022-12-19T11:48:14;14.95;;;11.02;;
51566;SDS011;37657;53.182;5.638;2022-12-19T11:50:57;15.68;;;10.23;;
51566;SDS011;37657;53.182;5.638;2022-12-19T11:56:15;12.95;;;11.52;;
51566;SDS011;37657;53.182;5.638;2022-12-19T11:58:47;12.40;;;9.93;;
51566;SDS011;37657;53.182;5.638;2022-12-19T12:04:12;12.10;;;10.98;;
51566;SDS011;37657;53.182;5.638;2022-12-19T12:06:50;13.85;;;10.65;;
51566;SDS011;37657;53.182;5.638;2022-12-19T12:12:08;13.30;;;10.95;;
51566;SDS011;37657;53.182;5.638;2022-12-19T12:17:33;18.90;;;14.57;;
51566;SDS011;37657;53.182;5.638;2022-12-19T12:20:07;35.78;;;32.13;;
51566;SDS011;37657;53.182;5.638;2022-12-19T12:28:37;13.73;;;11.68;;
51566;SDS011;37657;53.182;5.638;2022-12-19T12:36:12;17.65;;;9.77;;
51566;SDS011;37657;53.182;5.638;2022-12-19T12:44:33;12.43;;;9.25;;
51566;SDS011;37657;53.182;5.638;2022-12-19T12:47:19;10.23;;;8.55;;
51566;SDS011;37657;53.182;5.638;2022-12-19T12:49:54;11.77;;;8.55;;
51566;SDS011;37657;53.182;5.638;2022-12-19T12:52:34;11.20;;;9.10;;
51566;SDS011;37657;53.182;5.638;2022-12-19T12:55:26;10.52;;;9.48;;
51566;SDS011;37657;53.182;5.638;2022-12-19T12:57:55;11.82;;;9.07;;
51566;SDS011;37657;53.182;5.638;2022-12-19T13:00:22;13.20;;;10.18;;
51566;SDS011;37657;53.182;5.638;2022-12-19T13:02:51;10.98;;;9.75;;
51566;SDS011;37657;53.182;5.638;2022-12-19T13:08:00;9.80;;;8.80;;
51566;SDS011;37657;53.182;5.638;2022-12-19T13:10:26;17.63;;;11.07;;
51566;SDS011;37657;53.182;5.638;2022-12-19T13:22:44;10.65;;;9.65;;
51566;SDS011;37657;53.182;5.638;2022-12-19T13:27:55;10.52;;;8.57;;
51566;SDS011;37657;53.182;5.638;2022-12-19T13:30:22;14.15;;;9.40;;
51566;SDS011;37657;53.182;5.638;2022-12-19T13:42:56;11.00;;;9.45;;
51566;SDS011;37657;53.182;5.638;2022-12-19T13:45:46;9.60;;;8.38;;
51566;SDS011;37657;53.182;5.638;2022-12-19T13:48:30;9.27;;;7.60;;
51566;SDS011;37657;53.182;5.638;2022-12-19T13:51:08;10.50;;;8.30;;
51566;SDS011;37657;53.182;5.638;2022-12-19T13:53:35;10.15;;;8.93;;
51566;SDS011;37657;53.182;5.638;2022-12-19T13:56:03;10.75;;;9.68;;
51566;SDS011;37657;53.182;5.638;2022-12-19T13:58:35;15.38;;;10.63;;
51566;SDS011;37657;53.182;5.638;2022-12-19T14:01:24;14.48;;;12.48;;
51566;SDS011;37657;53.182;5.638;2022-12-19T14:03:53;11.48;;;10.27;;
51566;SDS011;37657;53.182;5.638;2022-12-19T14:06:23;11.25;;;9.98;;
51566;SDS011;37657;53.182;5.638;2022-12-19T14:08:51;11.27;;;10.00;;
51566;SDS011;37657;53.182;5.638;2022-12-19T14:11:21;13.98;;;12.63;;
51566;SDS011;37657;53.182;5.638;2022-12-19T14:13:51;11.52;;;10.43;;
51566;SDS011;37657;53.182;5.638;2022-12-19T14:16:40;10.57;;;9.52;;
51566;SDS011;37657;53.182;5.638;2022-12-19T14:19:23;15.07;;;13.30;;
51566;SDS011;37657;53.182;5.638;2022-12-19T14:21:51;11.20;;;10.10;;
51566;SDS011;37657;53.182;5.638;2022-12-19T14:26:46;10.05;;;9.05;;
51566;SDS011;37657;53.182;5.638;2022-12-19T14:29:17;11.63;;;10.40;;
51566;SDS011;37657;53.182;5.638;2022-12-19T14:31:48;9.90;;;8.95;;
51566;SDS011;37657;53.182;5.638;2022-12-19T14:34:16;16.38;;;11.07;;
51566;SDS011;37657;53.182;5.638;2022-12-19T14:36:51;10.23;;;8.70;;
51566;SDS011;37657;53.182;5.638;2022-12-19T14:39:18;12.23;;;11.02;;
51566;SDS011;37657;53.182;5.638;2022-12-19T14:41:47;11.50;;;8.07;;
51566;SDS011;37657;53.182;5.638;2022-12-19T14:44:45;10.88;;;8.73;;
51566;SDS011;37657;53.182;5.638;2022-12-19T14:47:22;9.77;;;8.60;;
51566;SDS011;37657;53.182;5.638;2022-12-19T14:49:51;8.75;;;7.85;;
51566;SDS011;37657;53.182;5.638;2022-12-19T14:57:46;9.90;;;8.20;;
51566;SDS011;37657;53.182;5.638;2022-12-19T15:00:29;7.32;;;6.45;;
51566;SDS011;37657;53.182;5.638;2022-12-19T15:02:57;10.02;;;7.55;;
51566;SDS011;37657;53.182;5.638;2022-12-19T15:05:25;11.95;;;9.05;;
51566;SDS011;37657;53.182;5.638;2022-12-19T15:07:52;11.20;;;8.25;;
51566;SDS011;37657;53.182;5.638;2022-12-19T15:10:23;11.98;;;9.73;;
51566;SDS011;37657;53.182;5.638;2022-12-19T15:13:01;8.65;;;7.72;;
51566;SDS011;37657;53.182;5.638;2022-12-19T15:15:54;9.00;;;8.10;;
51566;SDS011;37657;53.182;5.638;2022-12-19T15:20:51;9.90;;;8.73;;
51566;SDS011;37657;53.182;5.638;2022-12-19T15:23:20;11.73;;;10.00;;
51566;SDS011;37657;53.182;5.638;2022-12-19T15:25:46;12.73;;;9.45;;
51566;SDS011;37657;53.182;5.638;2022-12-19T15:28:58;11.15;;;8.52;;
51566;SDS011;37657;53.182;5.638;2022-12-19T15:31:02;10.40;;;7.63;;
51566;SDS011;37657;53.182;5.638;2022-12-19T15:33:34;10.40;;;7.78;;
51566;SDS011;37657;53.182;5.638;2022-12-19T15:35:59;11.18;;;8.77;;
51566;SDS011;37657;53.182;5.638;2022-12-19T15:38:25;8.13;;;7.32;;
51566;SDS011;37657;53.182;5.638;2022-12-19T15:40:50;8.10;;;7.30;;
51566;SDS011;37657;53.182;5.638;2022-12-19T15:43:17;10.35;;;7.15;;
51566;SDS011;37657;53.182;5.638;2022-12-19T15:45:45;10.48;;;7.72;;
51566;SDS011;37657;53.182;5.638;2022-12-19T15:48:14;13.75;;;8.30;;
51566;SDS011;37657;53.182;5.638;2022-12-19T15:50:41;8.50;;;6.82;;
51566;SDS011;37657;53.182;5.638;2022-12-19T15:53:18;10.15;;;8.27;;
51566;SDS011;37657;53.182;5.638;2022-12-19T15:55:45;10.80;;;9.07;;
51566;SDS011;37657;53.182;5.638;2022-12-19T15:58:12;8.70;;;7.53;;
51566;SDS011;37657;53.182;5.638;2022-12-19T16:00:38;12.25;;;8.50;;
51566;SDS011;37657;53.182;5.638;2022-12-19T16:03:10;9.18;;;7.05;;
51566;SDS011;37657;53.182;5.638;2022-12-19T16:05:36;12.98;;;7.88;;
51566;SDS011;37657;53.182;5.638;2022-12-19T16:08:04;12.82;;;8.40;;
51566;SDS011;37657;53.182;5.638;2022-12-19T16:10:35;9.30;;;7.10;;
51566;SDS011;37657;53.182;5.638;2022-12-19T16:13:01;9.00;;;8.07;;
51566;SDS011;37657;53.182;5.638;2022-12-19T16:15:27;8.60;;;6.97;;
51566;SDS011;37657;53.182;5.638;2022-12-19T16:17:55;10.77;;;7.82;;
51566;SDS011;37657;53.182;5.638;2022-12-19T16:20:27;11.27;;;8.93;;
51566;SDS011;37657;53.182;5.638;2022-12-19T16:22:55;11.20;;;8.38;;
51566;SDS011;37657;53.182;5.638;2022-12-19T16:25:21;13.23;;;7.28;;
51566;SDS011;37657;53.182;5.638;2022-12-19T16:27:58;9.68;;;6.60;;
51566;SDS011;37657;53.182;5.638;2022-12-19T16:30:29;8.35;;;6.72;;
51566;SDS011;37657;53.182;5.638;2022-12-19T16:32:57;11.20;;;6.47;;
51566;SDS011;37657;53.182;5.638;2022-12-19T16:35:23;8.95;;;6.30;;
51566;SDS011;37657;53.182;5.638;2022-12-19T16:37:50;13.23;;;8.80;;
51566;SDS011;37657;53.182;5.638;2022-12-19T16:40:16;12.20;;;7.45;;
51566;SDS011;37657;53.182;5.638;2022-12-19T16:42:43;14.45;;;7.57;;
51566;SDS011;37657;53.182;5.638;2022-12-19T16:45:21;8.43;;;6.72;;
51566;SDS011;37657;53.182;5.638;2022-12-19T16:47:48;20.83;;;10.77;;
51566;SDS011;37657;53.182;5.638;2022-12-19T16:50:27;9.02;;;6.75;;
51566;SDS011;37657;53.182;5.638;2022-12-19T16:52:54;8.85;;;6.90;;
51566;SDS011;37657;53.182;5.638;2022-12-19T16:55:21;11.20;;;7.85;;